sensor_id;sensor_type;location;lat;lon;timestamp;P1;durP1;ratioP1;P2;durP2;ratioP2
7957;SDS011;4024;52.172;5.378;2022-08-21T00:00:49;8.90;;;4.43;;
7957;SDS011;4024;52.172;5.378;2022-08-21T00:03:19;6.33;;;4.33;;
7957;SDS011;4024;52.172;5.378;2022-08-21T00:05:47;6.40;;;4.40;;
7957;SDS011;4024;52.172;5.378;2022-08-21T00:08:15;5.57;;;4.03;;
7957;SDS011;4024;52.172;5.378;2022-08-21T00:10:42;6.27;;;4.10;;
7957;SDS011;4024;52.172;5.378;2022-08-21T00:13:09;6.13;;;4.30;;
7957;SDS011;4024;52.172;5.378;2022-08-21T00:15:40;8.33;;;4.70;;
7957;SDS011;4024;52.172;5.378;2022-08-21T00:18:07;5.10;;;3.97;;
7957;SDS011;4024;52.172;5.378;2022-08-21T00:20:37;6.60;;;4.07;;
7957;SDS011;4024;52.172;5.378;2022-08-21T00:23:03;7.80;;;4.33;;
7957;SDS011;4024;52.172;5.378;2022-08-21T00:25:30;6.00;;;4.03;;
7957;SDS011;4024;52.172;5.378;2022-08-21T00:28:18;6.63;;;4.33;;
7957;SDS011;4024;52.172;5.378;2022-08-21T00:30:43;5.97;;;4.30;;
7957;SDS011;4024;52.172;5.378;2022-08-21T00:33:09;7.10;;;4.27;;
7957;SDS011;4024;52.172;5.378;2022-08-21T00:35:36;6.47;;;4.70;;
7957;SDS011;4024;52.172;5.378;2022-08-21T00:38:04;4.97;;;4.00;;
7957;SDS011;4024;52.172;5.378;2022-08-21T00:41:05;5.27;;;4.10;;
7957;SDS011;4024;52.172;5.378;2022-08-21T00:43:28;8.60;;;4.67;;
7957;SDS011;4024;52.172;5.378;2022-08-21T00:45:57;5.27;;;3.90;;
7957;SDS011;4024;52.172;5.378;2022-08-21T00:48:23;4.87;;;3.90;;
7957;SDS011;4024;52.172;5.378;2022-08-21T00:50:55;6.23;;;3.97;;
7957;SDS011;4024;52.172;5.378;2022-08-21T00:53:27;7.10;;;4.57;;
7957;SDS011;4024;52.172;5.378;2022-08-21T00:55:55;5.60;;;4.70;;
7957;SDS011;4024;52.172;5.378;2022-08-21T00:58:25;4.73;;;3.83;;
7957;SDS011;4024;52.172;5.378;2022-08-21T01:00:52;7.17;;;4.40;;
7957;SDS011;4024;52.172;5.378;2022-08-21T01:03:21;6.90;;;3.90;;
7957;SDS011;4024;52.172;5.378;2022-08-21T01:05:48;9.70;;;4.33;;
7957;SDS011;4024;52.172;5.378;2022-08-21T01:08:15;7.87;;;4.10;;
7957;SDS011;4024;52.172;5.378;2022-08-21T01:10:43;6.97;;;3.87;;
7957;SDS011;4024;52.172;5.378;2022-08-21T01:13:09;6.20;;;3.90;;
7957;SDS011;4024;52.172;5.378;2022-08-21T01:15:39;6.50;;;3.83;;
7957;SDS011;4024;52.172;5.378;2022-08-21T01:18:09;6.97;;;3.63;;
7957;SDS011;4024;52.172;5.378;2022-08-21T01:20:37;5.23;;;3.70;;
7957;SDS011;4024;52.172;5.378;2022-08-21T01:23:06;5.07;;;4.13;;
7957;SDS011;4024;52.172;5.378;2022-08-21T01:25:32;5.80;;;4.23;;
7957;SDS011;4024;52.172;5.378;2022-08-21T01:28:00;6.40;;;3.93;;
7957;SDS011;4024;52.172;5.378;2022-08-21T01:30:29;6.50;;;3.70;;
7957;SDS011;4024;52.172;5.378;2022-08-21T01:32:58;7.47;;;3.97;;
7957;SDS011;4024;52.172;5.378;2022-08-21T01:35:24;10.87;;;4.57;;
7957;SDS011;4024;52.172;5.378;2022-08-21T01:37:50;4.20;;;3.47;;
7957;SDS011;4024;52.172;5.378;2022-08-21T01:40:16;5.77;;;4.00;;
7957;SDS011;4024;52.172;5.378;2022-08-21T01:42:43;7.87;;;4.33;;
7957;SDS011;4024;52.172;5.378;2022-08-21T01:45:10;7.07;;;4.13;;
7957;SDS011;4024;52.172;5.378;2022-08-21T01:47:36;6.27;;;4.00;;
7957;SDS011;4024;52.172;5.378;2022-08-21T01:50:06;6.97;;;4.23;;
7957;SDS011;4024;52.172;5.378;2022-08-21T01:52:38;6.63;;;4.03;;
7957;SDS011;4024;52.172;5.378;2022-08-21T01:55:07;7.10;;;4.10;;
7957;SDS011;4024;52.172;5.378;2022-08-21T01:57:35;5.70;;;3.33;;
7957;SDS011;4024;52.172;5.378;2022-08-21T02:00:02;6.43;;;4.07;;
7957;SDS011;4024;52.172;5.378;2022-08-21T02:02:34;5.70;;;3.80;;
7957;SDS011;4024;52.172;5.378;2022-08-21T02:04:59;5.97;;;3.87;;
7957;SDS011;4024;52.172;5.378;2022-08-21T02:07:35;5.50;;;3.80;;
7957;SDS011;4024;52.172;5.378;2022-08-21T02:10:04;6.60;;;3.87;;
7957;SDS011;4024;52.172;5.378;2022-08-21T02:12:32;6.87;;;3.93;;
7957;SDS011;4024;52.172;5.378;2022-08-21T02:15:06;5.63;;;4.17;;
7957;SDS011;4024;52.172;5.378;2022-08-21T02:17:47;5.00;;;4.00;;
7957;SDS011;4024;52.172;5.378;2022-08-21T02:20:17;6.73;;;4.23;;
7957;SDS011;4024;52.172;5.378;2022-08-21T02:22:48;5.87;;;4.27;;
7957;SDS011;4024;52.172;5.378;2022-08-21T02:25:15;6.57;;;4.00;;
7957;SDS011;4024;52.172;5.378;2022-08-21T02:27:42;6.57;;;4.07;;
7957;SDS011;4024;52.172;5.378;2022-08-21T02:30:11;6.30;;;4.03;;
7957;SDS011;4024;52.172;5.378;2022-08-21T02:33:01;5.43;;;4.10;;
7957;SDS011;4024;52.172;5.378;2022-08-21T02:35:26;6.97;;;4.23;;
7957;SDS011;4024;52.172;5.378;2022-08-21T02:37:54;7.70;;;4.80;;
7957;SDS011;4024;52.172;5.378;2022-08-21T02:40:22;6.00;;;4.40;;
7957;SDS011;4024;52.172;5.378;2022-08-21T02:42:51;5.27;;;4.13;;
7957;SDS011;4024;52.172;5.378;2022-08-21T02:45:17;6.17;;;4.60;;
7957;SDS011;4024;52.172;5.378;2022-08-21T02:47:51;5.87;;;4.20;;
7957;SDS011;4024;52.172;5.378;2022-08-21T02:50:19;8.53;;;4.63;;
7957;SDS011;4024;52.172;5.378;2022-08-21T02:52:47;6.93;;;4.50;;
7957;SDS011;4024;52.172;5.378;2022-08-21T02:55:14;7.97;;;4.20;;
7957;SDS011;4024;52.172;5.378;2022-08-21T02:57:40;6.23;;;4.30;;
7957;SDS011;4024;52.172;5.378;2022-08-21T03:00:06;9.10;;;4.47;;
7957;SDS011;4024;52.172;5.378;2022-08-21T03:02:34;8.43;;;4.40;;
7957;SDS011;4024;52.172;5.378;2022-08-21T03:05:00;6.00;;;4.20;;
7957;SDS011;4024;52.172;5.378;2022-08-21T03:07:26;5.07;;;4.07;;
7957;SDS011;4024;52.172;5.378;2022-08-21T03:09:51;8.97;;;4.47;;
7957;SDS011;4024;52.172;5.378;2022-08-21T03:12:21;5.20;;;4.33;;
7957;SDS011;4024;52.172;5.378;2022-08-21T03:14:47;8.17;;;4.97;;
7957;SDS011;4024;52.172;5.378;2022-08-21T03:17:12;6.73;;;4.80;;
7957;SDS011;4024;52.172;5.378;2022-08-21T03:19:38;6.50;;;4.50;;
7957;SDS011;4024;52.172;5.378;2022-08-21T03:22:04;6.10;;;4.40;;
7957;SDS011;4024;52.172;5.378;2022-08-21T03:24:30;8.00;;;4.80;;
7957;SDS011;4024;52.172;5.378;2022-08-21T03:26:56;7.60;;;4.50;;
7957;SDS011;4024;52.172;5.378;2022-08-21T03:29:22;6.43;;;4.43;;
7957;SDS011;4024;52.172;5.378;2022-08-21T03:31:47;8.33;;;4.70;;
7957;SDS011;4024;52.172;5.378;2022-08-21T03:34:13;7.77;;;4.80;;
7957;SDS011;4024;52.172;5.378;2022-08-21T03:36:39;6.80;;;4.67;;
7957;SDS011;4024;52.172;5.378;2022-08-21T03:39:05;7.37;;;4.37;;
7957;SDS011;4024;52.172;5.378;2022-08-21T03:41:31;8.17;;;4.40;;
7957;SDS011;4024;52.172;5.378;2022-08-21T03:43:57;10.90;;;5.43;;
7957;SDS011;4024;52.172;5.378;2022-08-21T03:46:24;7.37;;;4.83;;
7957;SDS011;4024;52.172;5.378;2022-08-21T03:48:49;8.77;;;5.33;;
7957;SDS011;4024;52.172;5.378;2022-08-21T03:51:17;8.90;;;4.57;;
7957;SDS011;4024;52.172;5.378;2022-08-21T03:53:44;8.47;;;5.07;;
7957;SDS011;4024;52.172;5.378;2022-08-21T03:56:10;11.10;;;4.90;;
7957;SDS011;4024;52.172;5.378;2022-08-21T03:58:36;9.03;;;5.40;;
7957;SDS011;4024;52.172;5.378;2022-08-21T04:01:03;6.73;;;4.80;;
7957;SDS011;4024;52.172;5.378;2022-08-21T04:03:49;9.63;;;5.30;;
7957;SDS011;4024;52.172;5.378;2022-08-21T04:06:15;6.93;;;4.83;;
7957;SDS011;4024;52.172;5.378;2022-08-21T04:08:41;9.67;;;5.70;;
7957;SDS011;4024;52.172;5.378;2022-08-21T04:11:08;7.43;;;5.47;;
7957;SDS011;4024;52.172;5.378;2022-08-21T04:13:35;7.10;;;5.47;;
7957;SDS011;4024;52.172;5.378;2022-08-21T04:16:01;13.30;;;6.43;;
7957;SDS011;4024;52.172;5.378;2022-08-21T04:18:28;9.63;;;5.87;;
7957;SDS011;4024;52.172;5.378;2022-08-21T04:20:54;8.57;;;5.93;;
7957;SDS011;4024;52.172;5.378;2022-08-21T04:23:23;11.07;;;6.03;;
7957;SDS011;4024;52.172;5.378;2022-08-21T04:25:49;12.77;;;6.90;;
7957;SDS011;4024;52.172;5.378;2022-08-21T04:28:15;9.40;;;6.23;;
7957;SDS011;4024;52.172;5.378;2022-08-21T04:30:41;13.27;;;6.47;;
7957;SDS011;4024;52.172;5.378;2022-08-21T04:33:07;9.47;;;6.43;;
7957;SDS011;4024;52.172;5.378;2022-08-21T04:35:33;12.77;;;6.73;;
7957;SDS011;4024;52.172;5.378;2022-08-21T04:37:58;11.43;;;6.67;;
7957;SDS011;4024;52.172;5.378;2022-08-21T04:40:25;14.13;;;6.90;;
7957;SDS011;4024;52.172;5.378;2022-08-21T04:42:54;8.83;;;6.17;;
7957;SDS011;4024;52.172;5.378;2022-08-21T04:45:28;9.60;;;6.23;;
7957;SDS011;4024;52.172;5.378;2022-08-21T04:47:59;8.83;;;6.63;;
7957;SDS011;4024;52.172;5.378;2022-08-21T04:50:28;12.43;;;6.50;;
7957;SDS011;4024;52.172;5.378;2022-08-21T04:52:56;8.40;;;6.70;;
7957;SDS011;4024;52.172;5.378;2022-08-21T04:55:22;9.70;;;6.10;;
7957;SDS011;4024;52.172;5.378;2022-08-21T04:57:49;9.77;;;6.27;;
7957;SDS011;4024;52.172;5.378;2022-08-21T05:00:18;9.40;;;6.53;;
7957;SDS011;4024;52.172;5.378;2022-08-21T05:02:44;11.67;;;7.37;;
7957;SDS011;4024;52.172;5.378;2022-08-21T05:05:12;12.33;;;7.73;;
7957;SDS011;4024;52.172;5.378;2022-08-21T05:07:38;8.27;;;6.37;;
7957;SDS011;4024;52.172;5.378;2022-08-21T05:10:04;10.17;;;6.23;;
7957;SDS011;4024;52.172;5.378;2022-08-21T05:12:32;10.37;;;6.77;;
7957;SDS011;4024;52.172;5.378;2022-08-21T05:15:00;11.43;;;6.47;;
7957;SDS011;4024;52.172;5.378;2022-08-21T05:17:26;8.23;;;6.27;;
7957;SDS011;4024;52.172;5.378;2022-08-21T05:19:52;7.83;;;5.43;;
7957;SDS011;4024;52.172;5.378;2022-08-21T05:22:18;9.57;;;6.43;;
7957;SDS011;4024;52.172;5.378;2022-08-21T05:24:49;8.97;;;6.23;;
7957;SDS011;4024;52.172;5.378;2022-08-21T05:27:15;9.77;;;6.33;;
7957;SDS011;4024;52.172;5.378;2022-08-21T05:29:41;15.33;;;6.53;;
7957;SDS011;4024;52.172;5.378;2022-08-21T05:32:10;9.80;;;6.27;;
7957;SDS011;4024;52.172;5.378;2022-08-21T05:34:37;10.87;;;6.67;;
7957;SDS011;4024;52.172;5.378;2022-08-21T05:37:03;8.80;;;6.53;;
7957;SDS011;4024;52.172;5.378;2022-08-21T05:39:32;10.97;;;6.97;;
7957;SDS011;4024;52.172;5.378;2022-08-21T05:41:58;9.30;;;6.40;;
7957;SDS011;4024;52.172;5.378;2022-08-21T05:44:24;11.17;;;6.70;;
7957;SDS011;4024;52.172;5.378;2022-08-21T05:46:49;12.83;;;6.53;;
7957;SDS011;4024;52.172;5.378;2022-08-21T05:49:15;11.93;;;6.83;;
7957;SDS011;4024;52.172;5.378;2022-08-21T05:51:41;13.30;;;6.80;;
7957;SDS011;4024;52.172;5.378;2022-08-21T05:54:07;12.87;;;6.90;;
7957;SDS011;4024;52.172;5.378;2022-08-21T05:56:33;13.70;;;6.17;;
7957;SDS011;4024;52.172;5.378;2022-08-21T05:58:59;12.10;;;6.17;;
7957;SDS011;4024;52.172;5.378;2022-08-21T06:01:24;13.77;;;7.80;;
7957;SDS011;4024;52.172;5.378;2022-08-21T06:03:50;10.20;;;6.07;;
7957;SDS011;4024;52.172;5.378;2022-08-21T06:06:16;12.70;;;6.20;;
7957;SDS011;4024;52.172;5.378;2022-08-21T06:08:42;8.10;;;5.80;;
7957;SDS011;4024;52.172;5.378;2022-08-21T06:11:08;17.47;;;6.90;;
7957;SDS011;4024;52.172;5.378;2022-08-21T06:13:35;12.27;;;6.47;;
7957;SDS011;4024;52.172;5.378;2022-08-21T06:16:03;11.77;;;6.40;;
7957;SDS011;4024;52.172;5.378;2022-08-21T06:18:31;10.83;;;6.40;;
7957;SDS011;4024;52.172;5.378;2022-08-21T06:20:58;11.33;;;6.77;;
7957;SDS011;4024;52.172;5.378;2022-08-21T06:23:24;14.73;;;7.47;;
7957;SDS011;4024;52.172;5.378;2022-08-21T06:25:49;12.87;;;7.17;;
7957;SDS011;4024;52.172;5.378;2022-08-21T06:28:15;10.97;;;7.20;;
7957;SDS011;4024;52.172;5.378;2022-08-21T06:30:41;15.00;;;7.50;;
7957;SDS011;4024;52.172;5.378;2022-08-21T06:33:07;11.37;;;6.77;;
7957;SDS011;4024;52.172;5.378;2022-08-21T06:35:33;13.57;;;6.90;;
7957;SDS011;4024;52.172;5.378;2022-08-21T06:38:00;15.50;;;6.60;;
7957;SDS011;4024;52.172;5.378;2022-08-21T06:40:27;8.90;;;6.20;;
7957;SDS011;4024;52.172;5.378;2022-08-21T06:42:54;15.07;;;7.13;;
7957;SDS011;4024;52.172;5.378;2022-08-21T06:45:20;12.50;;;7.07;;
7957;SDS011;4024;52.172;5.378;2022-08-21T06:47:46;13.27;;;7.47;;
7957;SDS011;4024;52.172;5.378;2022-08-21T06:50:12;15.63;;;7.03;;
7957;SDS011;4024;52.172;5.378;2022-08-21T06:52:38;11.30;;;6.90;;
7957;SDS011;4024;52.172;5.378;2022-08-21T06:55:07;15.97;;;7.17;;
7957;SDS011;4024;52.172;5.378;2022-08-21T06:57:34;15.30;;;7.07;;
7957;SDS011;4024;52.172;5.378;2022-08-21T07:00:02;12.63;;;7.40;;
7957;SDS011;4024;52.172;5.378;2022-08-21T07:02:30;11.73;;;6.80;;
7957;SDS011;4024;52.172;5.378;2022-08-21T07:04:55;10.70;;;6.93;;
7957;SDS011;4024;52.172;5.378;2022-08-21T07:07:22;12.73;;;6.17;;
7957;SDS011;4024;52.172;5.378;2022-08-21T07:09:48;10.77;;;6.50;;
7957;SDS011;4024;52.172;5.378;2022-08-21T07:12:13;14.33;;;6.67;;
7957;SDS011;4024;52.172;5.378;2022-08-21T07:14:39;11.30;;;7.17;;
7957;SDS011;4024;52.172;5.378;2022-08-21T07:17:05;12.33;;;6.77;;
7957;SDS011;4024;52.172;5.378;2022-08-21T07:19:31;8.97;;;5.73;;
7957;SDS011;4024;52.172;5.378;2022-08-21T07:22:09;11.10;;;5.67;;
7957;SDS011;4024;52.172;5.378;2022-08-21T07:24:35;12.40;;;6.63;;
7957;SDS011;4024;52.172;5.378;2022-08-21T07:27:01;14.73;;;6.37;;
7957;SDS011;4024;52.172;5.378;2022-08-21T07:29:26;11.53;;;6.13;;
7957;SDS011;4024;52.172;5.378;2022-08-21T07:31:52;12.53;;;6.73;;
7957;SDS011;4024;52.172;5.378;2022-08-21T07:34:18;14.57;;;6.07;;
7957;SDS011;4024;52.172;5.378;2022-08-21T07:36:43;15.00;;;6.23;;
7957;SDS011;4024;52.172;5.378;2022-08-21T07:39:12;12.03;;;5.77;;
7957;SDS011;4024;52.172;5.378;2022-08-21T07:41:44;9.87;;;5.73;;
7957;SDS011;4024;52.172;5.378;2022-08-21T07:44:10;12.80;;;5.83;;
7957;SDS011;4024;52.172;5.378;2022-08-21T07:46:42;11.13;;;6.00;;
7957;SDS011;4024;52.172;5.378;2022-08-21T07:49:10;11.30;;;5.40;;
7957;SDS011;4024;52.172;5.378;2022-08-21T07:51:36;13.10;;;5.70;;
7957;SDS011;4024;52.172;5.378;2022-08-21T07:54:01;11.43;;;5.87;;
7957;SDS011;4024;52.172;5.378;2022-08-21T07:56:28;12.90;;;5.60;;
7957;SDS011;4024;52.172;5.378;2022-08-21T07:59:01;13.27;;;4.93;;
7957;SDS011;4024;52.172;5.378;2022-08-21T08:01:27;11.83;;;5.83;;
7957;SDS011;4024;52.172;5.378;2022-08-21T08:03:53;10.70;;;5.13;;
7957;SDS011;4024;52.172;5.378;2022-08-21T08:06:20;9.97;;;5.13;;
7957;SDS011;4024;52.172;5.378;2022-08-21T08:08:45;11.53;;;4.53;;
7957;SDS011;4024;52.172;5.378;2022-08-21T08:11:14;12.97;;;5.13;;
7957;SDS011;4024;52.172;5.378;2022-08-21T08:13:50;9.70;;;4.57;;
7957;SDS011;4024;52.172;5.378;2022-08-21T08:16:17;16.03;;;5.90;;
7957;SDS011;4024;52.172;5.378;2022-08-21T08:18:44;14.87;;;5.60;;
7957;SDS011;4024;52.172;5.378;2022-08-21T08:21:11;19.10;;;5.63;;
7957;SDS011;4024;52.172;5.378;2022-08-21T08:23:48;11.60;;;5.23;;
7957;SDS011;4024;52.172;5.378;2022-08-21T08:26:16;16.07;;;5.73;;
7957;SDS011;4024;52.172;5.378;2022-08-21T08:28:42;11.60;;;4.73;;
7957;SDS011;4024;52.172;5.378;2022-08-21T08:31:09;9.33;;;4.70;;
7957;SDS011;4024;52.172;5.378;2022-08-21T08:33:35;8.87;;;4.20;;
7957;SDS011;4024;52.172;5.378;2022-08-21T08:36:01;9.37;;;4.70;;
7957;SDS011;4024;52.172;5.378;2022-08-21T08:38:47;11.53;;;4.57;;
7957;SDS011;4024;52.172;5.378;2022-08-21T08:41:14;9.97;;;5.03;;
7957;SDS011;4024;52.172;5.378;2022-08-21T08:43:52;8.63;;;4.37;;
7957;SDS011;4024;52.172;5.378;2022-08-21T08:46:24;11.20;;;4.80;;
7957;SDS011;4024;52.172;5.378;2022-08-21T08:49:09;12.33;;;4.57;;
7957;SDS011;4024;52.172;5.378;2022-08-21T08:51:47;8.60;;;4.70;;
7957;SDS011;4024;52.172;5.378;2022-08-21T08:54:25;14.97;;;4.83;;
7957;SDS011;4024;52.172;5.378;2022-08-21T08:57:00;10.13;;;4.37;;
7957;SDS011;4024;52.172;5.378;2022-08-21T08:59:42;11.80;;;4.63;;
7957;SDS011;4024;52.172;5.378;2022-08-21T09:02:12;13.87;;;5.33;;
7957;SDS011;4024;52.172;5.378;2022-08-21T09:04:39;9.97;;;4.20;;
7957;SDS011;4024;52.172;5.378;2022-08-21T09:10:10;11.23;;;4.53;;
7957;SDS011;4024;52.172;5.378;2022-08-21T09:12:43;8.57;;;4.00;;
7957;SDS011;4024;52.172;5.378;2022-08-21T09:20:45;11.07;;;4.30;;
7957;SDS011;4024;52.172;5.378;2022-08-21T09:26:23;9.30;;;4.10;;
7957;SDS011;4024;52.172;5.378;2022-08-21T09:28:53;8.93;;;3.77;;
7957;SDS011;4024;52.172;5.378;2022-08-21T09:31:29;11.27;;;4.10;;
7957;SDS011;4024;52.172;5.378;2022-08-21T09:34:23;10.10;;;3.40;;
7957;SDS011;4024;52.172;5.378;2022-08-21T09:36:50;6.63;;;3.83;;
7957;SDS011;4024;52.172;5.378;2022-08-21T09:39:26;11.67;;;3.83;;
7957;SDS011;4024;52.172;5.378;2022-08-21T09:42:02;8.67;;;3.83;;
7957;SDS011;4024;52.172;5.378;2022-08-21T09:44:31;8.87;;;3.47;;
7957;SDS011;4024;52.172;5.378;2022-08-21T09:47:01;8.23;;;3.53;;
7957;SDS011;4024;52.172;5.378;2022-08-21T09:49:31;9.20;;;3.30;;
7957;SDS011;4024;52.172;5.378;2022-08-21T09:51:59;10.83;;;3.90;;
7957;SDS011;4024;52.172;5.378;2022-08-21T09:54:37;7.47;;;3.47;;
7957;SDS011;4024;52.172;5.378;2022-08-21T09:59:51;9.13;;;3.33;;
7957;SDS011;4024;52.172;5.378;2022-08-21T10:05:18;8.00;;;3.50;;
7957;SDS011;4024;52.172;5.378;2022-08-21T10:07:42;7.10;;;3.53;;
7957;SDS011;4024;52.172;5.378;2022-08-21T10:10:14;9.23;;;3.30;;
7957;SDS011;4024;52.172;5.378;2022-08-21T10:15:54;6.33;;;3.00;;
7957;SDS011;4024;52.172;5.378;2022-08-21T10:18:36;8.30;;;3.40;;
7957;SDS011;4024;52.172;5.378;2022-08-21T10:21:27;9.57;;;3.50;;
7957;SDS011;4024;52.172;5.378;2022-08-21T10:24:13;7.67;;;3.80;;
7957;SDS011;4024;52.172;5.378;2022-08-21T10:35:11;8.47;;;3.33;;
7957;SDS011;4024;52.172;5.378;2022-08-21T10:40:31;7.40;;;3.27;;
7957;SDS011;4024;52.172;5.378;2022-08-21T10:48:47;8.47;;;3.30;;
7957;SDS011;4024;52.172;5.378;2022-08-21T10:51:33;6.57;;;3.37;;
7957;SDS011;4024;52.172;5.378;2022-08-21T10:56:54;6.10;;;3.10;;
7957;SDS011;4024;52.172;5.378;2022-08-21T10:59:43;6.30;;;2.87;;
7957;SDS011;4024;52.172;5.378;2022-08-21T11:02:17;8.40;;;3.00;;
7957;SDS011;4024;52.172;5.378;2022-08-21T11:10:10;8.47;;;3.00;;
7957;SDS011;4024;52.172;5.378;2022-08-21T11:12:44;9.33;;;3.40;;
7957;SDS011;4024;52.172;5.378;2022-08-21T11:15:43;9.07;;;3.23;;
7957;SDS011;4024;52.172;5.378;2022-08-21T11:18:21;6.70;;;2.93;;
7957;SDS011;4024;52.172;5.378;2022-08-21T11:24:03;5.97;;;2.73;;
7957;SDS011;4024;52.172;5.378;2022-08-21T11:26:45;11.17;;;3.10;;
7957;SDS011;4024;52.172;5.378;2022-08-21T11:29:19;7.53;;;2.90;;
7957;SDS011;4024;52.172;5.378;2022-08-21T11:31:58;5.67;;;3.10;;
7957;SDS011;4024;52.172;5.378;2022-08-21T11:37:23;8.67;;;3.23;;
7957;SDS011;4024;52.172;5.378;2022-08-21T11:45:33;8.17;;;3.83;;
7957;SDS011;4024;52.172;5.378;2022-08-21T11:48:39;8.80;;;3.13;;
7957;SDS011;4024;52.172;5.378;2022-08-21T11:51:13;7.37;;;4.10;;
7957;SDS011;4024;52.172;5.378;2022-08-21T11:53:58;5.50;;;3.00;;
7957;SDS011;4024;52.172;5.378;2022-08-21T11:56:35;6.10;;;3.40;;
7957;SDS011;4024;52.172;5.378;2022-08-21T11:59:32;7.60;;;3.73;;
7957;SDS011;4024;52.172;5.378;2022-08-21T12:02:10;8.03;;;3.87;;
7957;SDS011;4024;52.172;5.378;2022-08-21T12:04:49;6.63;;;3.30;;
7957;SDS011;4024;52.172;5.378;2022-08-21T12:07:29;7.43;;;3.40;;
7957;SDS011;4024;52.172;5.378;2022-08-21T12:10:09;8.23;;;3.20;;
7957;SDS011;4024;52.172;5.378;2022-08-21T12:12:40;7.27;;;3.63;;
7957;SDS011;4024;52.172;5.378;2022-08-21T12:15:24;4.90;;;3.20;;
7957;SDS011;4024;52.172;5.378;2022-08-21T12:20:37;6.70;;;3.30;;
7957;SDS011;4024;52.172;5.378;2022-08-21T12:25:38;8.10;;;2.80;;
7957;SDS011;4024;52.172;5.378;2022-08-21T12:28:21;6.30;;;3.40;;
7957;SDS011;4024;52.172;5.378;2022-08-21T12:30:48;7.80;;;3.50;;
7957;SDS011;4024;52.172;5.378;2022-08-21T12:33:34;6.60;;;3.03;;
7957;SDS011;4024;52.172;5.378;2022-08-21T12:36:13;8.83;;;3.27;;
7957;SDS011;4024;52.172;5.378;2022-08-21T12:38:58;6.53;;;3.20;;
7957;SDS011;4024;52.172;5.378;2022-08-21T12:41:28;5.67;;;2.70;;
7957;SDS011;4024;52.172;5.378;2022-08-21T12:44:04;7.23;;;3.30;;
7957;SDS011;4024;52.172;5.378;2022-08-21T12:46:42;5.63;;;3.27;;
7957;SDS011;4024;52.172;5.378;2022-08-21T12:49:23;6.97;;;3.20;;
7957;SDS011;4024;52.172;5.378;2022-08-21T12:52:12;5.07;;;3.07;;
7957;SDS011;4024;52.172;5.378;2022-08-21T12:54:52;8.43;;;3.07;;
7957;SDS011;4024;52.172;5.378;2022-08-21T12:57:19;6.83;;;3.00;;
7957;SDS011;4024;52.172;5.378;2022-08-21T12:59:51;11.73;;;3.50;;
7957;SDS011;4024;52.172;5.378;2022-08-21T13:02:22;9.03;;;3.07;;
7957;SDS011;4024;52.172;5.378;2022-08-21T13:04:52;6.13;;;3.03;;
7957;SDS011;4024;52.172;5.378;2022-08-21T13:07:30;5.50;;;2.87;;
7957;SDS011;4024;52.172;5.378;2022-08-21T13:10:03;8.63;;;3.07;;
7957;SDS011;4024;52.172;5.378;2022-08-21T13:12:32;7.63;;;3.30;;
7957;SDS011;4024;52.172;5.378;2022-08-21T13:15:02;9.93;;;3.83;;
7957;SDS011;4024;52.172;5.378;2022-08-21T13:17:31;7.43;;;3.43;;
7957;SDS011;4024;52.172;5.378;2022-08-21T13:20:07;6.70;;;3.07;;
7957;SDS011;4024;52.172;5.378;2022-08-21T13:22:42;6.60;;;2.87;;
7957;SDS011;4024;52.172;5.378;2022-08-21T13:25:15;6.50;;;2.70;;
7957;SDS011;4024;52.172;5.378;2022-08-21T13:27:56;5.30;;;2.90;;
7957;SDS011;4024;52.172;5.378;2022-08-21T13:30:29;6.10;;;2.77;;
7957;SDS011;4024;52.172;5.378;2022-08-21T13:32:56;7.17;;;3.00;;
7957;SDS011;4024;52.172;5.378;2022-08-21T13:35:30;7.10;;;2.80;;
7957;SDS011;4024;52.172;5.378;2022-08-21T13:38:01;7.70;;;2.93;;
7957;SDS011;4024;52.172;5.378;2022-08-21T13:40:32;7.37;;;3.13;;
7957;SDS011;4024;52.172;5.378;2022-08-21T13:43:10;6.63;;;2.53;;
7957;SDS011;4024;52.172;5.378;2022-08-21T13:45:38;6.13;;;2.87;;
7957;SDS011;4024;52.172;5.378;2022-08-21T13:48:09;10.33;;;3.17;;
7957;SDS011;4024;52.172;5.378;2022-08-21T13:50:35;4.57;;;2.93;;
7957;SDS011;4024;52.172;5.378;2022-08-21T13:53:05;4.67;;;2.63;;
7957;SDS011;4024;52.172;5.378;2022-08-21T13:55:37;4.43;;;2.57;;
7957;SDS011;4024;52.172;5.378;2022-08-21T13:58:08;9.53;;;2.90;;
7957;SDS011;4024;52.172;5.378;2022-08-21T14:00:43;5.03;;;2.80;;
7957;SDS011;4024;52.172;5.378;2022-08-21T14:03:11;5.23;;;3.10;;
7957;SDS011;4024;52.172;5.378;2022-08-21T14:06:01;4.60;;;2.57;;
7957;SDS011;4024;52.172;5.378;2022-08-21T14:08:29;5.00;;;2.53;;
7957;SDS011;4024;52.172;5.378;2022-08-21T14:11:00;4.80;;;2.73;;
7957;SDS011;4024;52.172;5.378;2022-08-21T14:16:03;5.53;;;2.50;;
7957;SDS011;4024;52.172;5.378;2022-08-21T14:18:45;6.03;;;3.10;;
7957;SDS011;4024;52.172;5.378;2022-08-21T14:21:12;6.10;;;2.90;;
7957;SDS011;4024;52.172;5.378;2022-08-21T14:23:39;6.47;;;3.23;;
7957;SDS011;4024;52.172;5.378;2022-08-21T14:26:05;4.40;;;2.70;;
7957;SDS011;4024;52.172;5.378;2022-08-21T14:28:38;8.00;;;2.87;;
7957;SDS011;4024;52.172;5.378;2022-08-21T14:33:47;7.53;;;2.87;;
7957;SDS011;4024;52.172;5.378;2022-08-21T14:36:13;5.63;;;2.50;;
7957;SDS011;4024;52.172;5.378;2022-08-21T14:38:40;6.53;;;2.80;;
7957;SDS011;4024;52.172;5.378;2022-08-21T14:41:16;5.83;;;2.80;;
7957;SDS011;4024;52.172;5.378;2022-08-21T14:43:45;4.67;;;3.00;;
7957;SDS011;4024;52.172;5.378;2022-08-21T14:46:12;9.03;;;3.17;;
7957;SDS011;4024;52.172;5.378;2022-08-21T14:48:39;6.67;;;2.63;;
7957;SDS011;4024;52.172;5.378;2022-08-21T14:51:04;4.90;;;2.60;;
7957;SDS011;4024;52.172;5.378;2022-08-21T14:53:32;6.47;;;2.70;;
7957;SDS011;4024;52.172;5.378;2022-08-21T14:55:57;6.07;;;3.00;;
7957;SDS011;4024;52.172;5.378;2022-08-21T14:58:33;3.60;;;2.43;;
7957;SDS011;4024;52.172;5.378;2022-08-21T15:01:00;3.13;;;2.30;;
7957;SDS011;4024;52.172;5.378;2022-08-21T15:03:29;7.20;;;2.83;;
7957;SDS011;4024;52.172;5.378;2022-08-21T15:05:56;5.17;;;2.80;;
7957;SDS011;4024;52.172;5.378;2022-08-21T15:08:21;6.77;;;3.10;;
7957;SDS011;4024;52.172;5.378;2022-08-21T15:10:47;4.87;;;2.50;;
7957;SDS011;4024;52.172;5.378;2022-08-21T15:13:13;5.80;;;2.90;;
7957;SDS011;4024;52.172;5.378;2022-08-21T15:15:43;4.50;;;2.63;;
7957;SDS011;4024;52.172;5.378;2022-08-21T15:18:10;6.10;;;2.60;;
7957;SDS011;4024;52.172;5.378;2022-08-21T15:20:36;9.30;;;3.30;;
7957;SDS011;4024;52.172;5.378;2022-08-21T15:23:03;5.33;;;2.60;;
7957;SDS011;4024;52.172;5.378;2022-08-21T15:25:29;6.13;;;2.60;;
7957;SDS011;4024;52.172;5.378;2022-08-21T15:27:55;6.07;;;2.30;;
7957;SDS011;4024;52.172;5.378;2022-08-21T15:30:21;6.47;;;2.97;;
7957;SDS011;4024;52.172;5.378;2022-08-21T15:32:47;9.37;;;2.70;;
7957;SDS011;4024;52.172;5.378;2022-08-21T15:35:12;7.30;;;2.80;;
7957;SDS011;4024;52.172;5.378;2022-08-21T15:37:38;7.57;;;3.33;;
7957;SDS011;4024;52.172;5.378;2022-08-21T15:40:04;9.40;;;3.50;;
7957;SDS011;4024;52.172;5.378;2022-08-21T15:42:32;7.63;;;3.50;;
7957;SDS011;4024;52.172;5.378;2022-08-21T15:44:58;5.33;;;2.57;;
7957;SDS011;4024;52.172;5.378;2022-08-21T15:47:34;5.90;;;2.80;;
7957;SDS011;4024;52.172;5.378;2022-08-21T15:50:02;6.53;;;3.00;;
7957;SDS011;4024;52.172;5.378;2022-08-21T15:52:29;4.97;;;2.87;;
7957;SDS011;4024;52.172;5.378;2022-08-21T15:54:55;5.50;;;2.83;;
7957;SDS011;4024;52.172;5.378;2022-08-21T15:57:22;5.37;;;2.70;;
7957;SDS011;4024;52.172;5.378;2022-08-21T15:59:49;4.73;;;2.50;;
7957;SDS011;4024;52.172;5.378;2022-08-21T16:02:24;6.63;;;2.80;;
7957;SDS011;4024;52.172;5.378;2022-08-21T16:04:52;6.90;;;3.40;;
7957;SDS011;4024;52.172;5.378;2022-08-21T16:07:18;8.27;;;3.33;;
7957;SDS011;4024;52.172;5.378;2022-08-21T16:09:44;4.80;;;3.50;;
7957;SDS011;4024;52.172;5.378;2022-08-21T16:12:11;6.60;;;3.00;;
7957;SDS011;4024;52.172;5.378;2022-08-21T16:14:42;5.97;;;2.40;;
7957;SDS011;4024;52.172;5.378;2022-08-21T16:17:08;8.97;;;3.03;;
7957;SDS011;4024;52.172;5.378;2022-08-21T16:19:34;7.50;;;2.40;;
7957;SDS011;4024;52.172;5.378;2022-08-21T16:22:01;4.43;;;2.57;;
7957;SDS011;4024;52.172;5.378;2022-08-21T16:24:26;6.60;;;2.33;;
7957;SDS011;4024;52.172;5.378;2022-08-21T16:26:52;6.70;;;2.50;;
7957;SDS011;4024;52.172;5.378;2022-08-21T16:29:18;6.60;;;2.70;;
7957;SDS011;4024;52.172;5.378;2022-08-21T16:31:44;5.70;;;2.77;;
7957;SDS011;4024;52.172;5.378;2022-08-21T16:34:12;8.40;;;3.00;;
7957;SDS011;4024;52.172;5.378;2022-08-21T16:36:42;5.30;;;2.73;;